Campanya Meteocatpedra
Centenari de l'SMC: 100 anys mirant el cel

Dades de l'estació automàtica Lleida - la Femosa

?
?

Resum diari

23:00 TU
Dades diàries de l'estació meteorològica
Temperatura mitjana 19.2 °C
Temperatura màxima 26.3 °C 13:57 TU
Temperatura mínima 13.8 °C 5:12 TU
Humitat relativa mitjana 55%
Precipitació acumulada 0.0 mm
Ratxa màxima del vent (10 m) 37.4 km/h - 279º 14:02 TU
Irradiació solar global 20.9 MJ/m2

El tram horari està expressat en Temps Universal (TU). Cal sumar una hora en horari d'hivern i dues en horari d'estiu per passar a l'hora oficial.

Lleida - la Femosa

Metadades estació meteorològica
Municipi Lleida
Comarca Segrià
Altitud 170 m
Data alta 21.08.2018
Estat actual Operativa
Dades de període
Període
TU
TM
°C
TX
°C
TN
°C
HRM
%
PPT
mm
VVM (10 m)
km/h
DVM (10 m)
graus
VVX (10 m)
km/h
RS
W/m2
00:00 - 00:30 16.8 17.0 16.6 67 0.0 14.4 238 24.5 0
00:30 - 01:00 15.9 16.6 15.3 71 0.0 11.2 224 16.6 0
01:00 - 01:30 15.4 15.7 14.9 74 0.0 10.8 224 16.9 0
01:30 - 02:00 14.4 14.8 14.1 78 0.0 8.3 218 12.6 0
02:00 - 02:30 14.0 14.1 13.9 80 0.0 8.6 214 13.3 0
02:30 - 03:00 14.1 14.2 14.0 79 0.0 11.5 216 17.3 0
03:00 - 03:30 14.5 14.7 14.1 77 0.0 10.4 220 17.3 0
03:30 - 04:00 14.3 14.6 13.8 79 0.0 7.9 227 14.8 0
04:00 - 04:30 14.2 14.3 14.1 80 0.0 9.4 225 15.8 0
04:30 - 05:00 14.0 14.1 13.9 81 0.0 6.5 232 12.2 0
05:00 - 05:30 14.0 14.1 13.8 81 0.0 10.4 219 16.6 0
05:30 - 06:00 14.1 14.2 14.0 80 0.0 11.2 219 20.2 3
06:00 - 06:30 14.4 14.4 14.3 78 0.0 13.7 211 19.8 20
06:30 - 07:00 14.6 15.4 14.4 78 0.0 10.4 219 15.1 93
07:00 - 07:30 16.4 17.1 15.5 71 0.0 13.0 224 20.9 235
07:30 - 08:00 17.8 18.7 17.1 66 0.0 13.3 234 23.4 356
08:00 - 08:30 18.6 19.0 18.3 62 0.0 14.0 237 23.4 452
08:30 - 09:00 19.3 19.9 18.9 60 0.0 11.9 251 23.0 441
09:00 - 09:30 20.0 21.1 19.1 58 0.0 11.2 250 20.2 567
09:30 - 10:00 21.0 21.8 20.5 54 0.0 11.9 252 24.8 662
10:00 - 10:30 21.9 22.5 21.3 50 0.0 15.5 250 27.7 732
10:30 - 11:00 22.5 23.1 22.0 47 0.0 16.9 253 29.9 760
11:00 - 11:30 23.5 24.1 23.2 45 0.0 15.5 254 32.4 785
11:30 - 12:00 24.1 24.9 23.5 43 0.0 13.3 278 29.5 765
12:00 - 12:30 24.9 25.5 24.4 38 0.0 16.2 264 29.2 791
12:30 - 13:00 25.3 25.7 24.9 33 0.0 18.4 281 33.1 793
13:00 - 13:30 25.7 26.1 25.3 29 0.0 18.0 272 32.0 750
13:30 - 14:00 25.7 26.3 25.4 26 0.0 21.2 280 36.0 707
14:00 - 14:30 25.8 26.0 25.5 26 0.0 20.2 278 37.4 645
14:30 - 15:00 25.5 25.9 25.1 26 0.0 18.4 268 34.6 571
15:00 - 15:30 25.0 25.4 24.7 27 0.0 20.5 271 33.8 486
15:30 - 16:00 24.7 25.0 24.5 30 0.0 18.7 277 32.4 409
16:00 - 16:30 24.1 24.8 23.4 33 0.0 19.1 275 36.7 298
16:30 - 17:00 23.5 24.0 23.1 35 0.0 21.2 281 36.7 237
17:00 - 17:30 22.3 23.1 22.0 34 0.0 18.7 276 34.6 76
17:30 - 18:00 21.0 21.9 20.3 36 0.0 13.3 271 26.6 15
18:00 - 18:30 19.9 20.3 19.6 40 0.0 10.1 243 25.2 0
18:30 - 19:00 19.6 19.9 19.4 41 0.0 13.0 233 20.9 0
19:00 - 19:30 19.1 19.4 18.9 45 0.0 14.0 234 25.9 0
19:30 - 20:00 18.8 19.0 18.7 46 0.0 14.0 248 27.4 0
20:00 - 20:30 18.5 18.7 18.3 46 0.0 11.5 248 24.1 0
20:30 - 21:00 18.0 18.3 17.8 49 0.0 11.2 229 21.6 0
21:00 - 21:30 17.6 17.8 17.3 53 0.0 11.2 248 22.3 0
21:30 - 22:00 17.1 17.3 17.0 56 0.0 11.5 227 20.2 0
22:00 - 22:30 16.9 17.0 16.6 56 0.0 11.9 226 20.9 0
22:30 - 23:00 16.5 16.7 16.3 59 0.0 11.5 220 17.6 0
23:00 - 23:30 15.8 16.2 15.3 62 0.0 12.2 214 19.8 0

Les dades en taronja només han passat un control de qualitat automàtic. Resta pendent la seva validació definitiva.